Terminal Aerodrome Forecast
Issued by NWS Boise, ID

Home | Current Version | Previous Version | Text Only | Print | Product List | Glossary On
Versions: 1 2 3 4 5 6 7 8 9 10 11 12 13 14 15 16
000
FTUS45 KBOI 041743
TAFBOI
TAF
KBOI 041743Z 0418/0518 13010KT P6SM VCSH SCT040 OVC060
     FM042300 33007KT P6SM -SHRA OVC040
      TEMPO 0423/0501 32014G24KT 5SM -RASN BKN020 OVC040
     FM050100 32010KT P6SM BKN050=

USA.gov is the U.S. government's official web portal to all federal, state and local government web resources and services.